createdAt,value
2018-04-07T00:01:20.122Z,13.73
2018-04-07T00:03:48.409Z,15.70
2018-04-07T00:06:16.708Z,15.83
2018-04-07T00:08:45.098Z,13.07
2018-04-07T00:11:13.536Z,12.63
2018-04-07T00:13:41.775Z,12.67
2018-04-07T00:16:10.278Z,13.30
2018-04-07T00:18:38.605Z,14.30
2018-04-07T00:21:06.862Z,12.90
2018-04-07T00:23:35.533Z,13.00
2018-04-07T00:26:04.593Z,16.10
2018-04-07T00:28:32.892Z,12.23
2018-04-07T00:31:01.139Z,12.07
2018-04-07T00:33:29.440Z,11.97
2018-04-07T00:35:57.707Z,14.67
2018-04-07T00:38:26.006Z,13.83
2018-04-07T00:40:54.296Z,14.30
2018-04-07T00:43:22.518Z,12.60
2018-04-07T00:45:51.080Z,13.37
2018-04-07T00:48:20.111Z,15.40
2018-04-07T00:50:48.387Z,12.70
2018-04-07T00:53:16.680Z,12.50
2018-04-07T00:55:44.924Z,14.07
2018-04-07T00:58:13.933Z,13.27
2018-04-07T01:00:42.361Z,14.87
2018-04-07T01:03:10.602Z,18.53
2018-04-07T01:05:38.850Z,13.83
2018-04-07T01:08:08.030Z,12.63
2018-04-07T01:10:36.304Z,13.07
2018-04-07T01:13:04.818Z,12.97
2018-04-07T01:15:33.862Z,13.53
2018-04-07T01:18:02.154Z,12.97
2018-04-07T01:20:30.391Z,12.77
2018-04-07T01:22:58.808Z,13.13
2018-04-07T01:43:30.295Z,16.07
2018-04-07T01:45:58.615Z,12.77
2018-04-07T01:48:27.663Z,15.70
2018-04-07T01:50:55.968Z,13.73
2018-04-07T01:53:24.274Z,12.73
2018-04-07T01:55:52.581Z,12.90
2018-04-07T01:58:21.575Z,14.00
2018-04-07T02:00:50.119Z,15.60
2018-04-07T02:03:18.390Z,13.33
2018-04-07T02:05:46.680Z,13.30
2018-04-07T02:08:15.061Z,14.83
2018-04-07T02:10:43.319Z,16.83
2018-04-07T02:13:11.688Z,15.77
2018-04-07T02:15:40.021Z,20.47
2018-04-07T02:18:08.261Z,19.53
2018-04-07T02:20:36.540Z,20.33
2018-04-07T02:23:04.827Z,18.20
2018-04-07T02:25:33.204Z,19.07
2018-04-07T02:28:01.448Z,20.23
2018-04-07T02:30:29.747Z,18.83
2018-04-07T02:32:58.053Z,17.30
2018-04-07T02:35:26.270Z,16.87
2018-04-07T02:37:55.551Z,16.17
2018-04-07T02:40:23.845Z,14.97
2018-04-07T02:42:52.115Z,12.57
2018-04-07T02:45:20.533Z,14.97
2018-04-07T02:47:49.570Z,14.00
2018-04-07T02:50:17.835Z,14.23
2018-04-07T02:52:46.127Z,17.00
2018-04-07T02:55:14.409Z,15.03
2018-04-07T02:57:42.676Z,13.20
2018-04-07T03:00:10.947Z,14.53
2018-04-07T03:02:39.225Z,13.50
2018-04-07T03:23:11.075Z,18.30
2018-04-07T03:25:40.132Z,16.60
2018-04-07T03:28:08.412Z,16.43
2018-04-07T03:30:36.717Z,14.97
2018-04-07T03:33:04.996Z,18.33
2018-04-07T03:35:33.262Z,15.00
2018-04-07T03:38:01.593Z,16.20
2018-04-07T03:40:30.643Z,16.13
2018-04-07T03:42:58.886Z,17.70
2018-04-07T03:45:27.223Z,14.07
2018-04-07T03:47:55.470Z,16.10
2018-04-07T03:50:23.755Z,13.97
2018-04-07T03:52:52.064Z,16.20
2018-04-07T03:55:20.361Z,22.77
2018-04-07T03:57:48.664Z,17.57
2018-04-07T04:00:17.718Z,16.00
2018-04-07T04:02:45.951Z,17.40
2018-04-07T04:05:14.236Z,15.87
2018-04-07T04:07:42.679Z,17.00
2018-04-07T04:10:10.947Z,22.27
2018-04-07T04:12:39.218Z,21.33
2018-04-07T04:15:07.462Z,20.60
2018-04-07T04:17:35.743Z,21.07
2018-04-07T04:20:04.022Z,16.97
2018-04-07T04:22:32.445Z,19.53
2018-04-07T04:43:05.989Z,18.87
2018-04-07T04:45:34.694Z,17.67
2018-04-07T04:48:03.760Z,17.90
2018-04-07T04:50:32.020Z,16.57
2018-04-07T04:53:00.552Z,18.67
2018-04-07T04:55:28.853Z,18.20
2018-04-07T04:57:57.888Z,20.27
2018-04-07T05:00:26.295Z,23.63
2018-04-07T05:02:54.569Z,22.73
2018-04-07T05:05:22.832Z,20.63
2018-04-07T05:07:51.462Z,19.00
2018-04-07T05:10:19.761Z,18.47
2018-04-07T05:12:48.784Z,19.17
2018-04-07T05:15:17.500Z,20.20
2018-04-07T05:17:45.807Z,19.60
2018-04-07T05:20:14.087Z,18.43
2018-04-07T05:22:42.481Z,20.90
2018-04-07T05:25:11.518Z,16.63
2018-04-07T05:27:39.825Z,20.10
2018-04-07T05:30:08.341Z,16.73
2018-04-07T05:32:36.698Z,17.43
2018-04-07T05:35:05.134Z,17.33
2018-04-07T05:37:33.436Z,16.10
2018-04-07T05:40:01.743Z,17.27
2018-04-07T05:42:29.977Z,15.17
2018-04-07T05:44:58.535Z,16.20
2018-04-07T05:47:27.586Z,18.83
2018-04-07T05:49:55.872Z,18.43
2018-04-07T05:52:24.157Z,17.13
2018-04-07T05:54:52.436Z,18.60
2018-04-07T05:57:20.671Z,16.60
2018-04-07T05:59:49.315Z,17.23
2018-04-07T06:02:17.596Z,19.07
2018-04-07T06:04:45.869Z,18.57
2018-04-07T06:07:14.362Z,16.37
2018-04-07T06:27:46.686Z,17.83
2018-04-07T06:30:15.758Z,17.97
2018-04-07T06:32:44.025Z,20.30
2018-04-07T06:35:12.333Z,15.53
2018-04-07T06:37:40.621Z,16.07
2018-04-07T06:40:09.627Z,19.07
2018-04-07T06:42:37.875Z,17.07
2018-04-07T06:45:06.362Z,17.37
2018-04-07T06:47:34.595Z,18.90
2018-04-07T06:50:02.905Z,15.20
2018-04-07T06:52:31.183Z,16.13
2018-04-07T06:54:59.510Z,15.33
2018-04-07T06:57:27.745Z,15.70
2018-04-07T06:59:56.047Z,12.70
2018-04-07T07:02:24.283Z,14.13
2018-04-07T07:04:52.560Z,14.93
2018-04-07T07:07:20.876Z,16.93
2018-04-07T07:09:49.100Z,13.13
2018-04-07T07:12:17.413Z,13.67
2018-04-07T07:14:46.019Z,12.97
2018-04-07T07:17:14.289Z,15.40
2018-04-07T07:19:42.628Z,13.63
2018-04-07T07:22:11.696Z,14.83
2018-04-07T07:24:39.972Z,17.33
2018-04-07T07:27:08.260Z,15.23
2018-04-07T07:29:36.769Z,17.97
2018-04-07T07:32:05.446Z,16.03
2018-04-07T07:34:34.501Z,15.80
2018-04-07T07:37:02.758Z,17.93
2018-04-07T07:39:31.078Z,21.03
2018-04-07T07:41:59.517Z,18.80
2018-04-07T07:44:27.929Z,20.17
2018-04-07T07:46:56.240Z,24.60
2018-04-07T07:49:24.471Z,18.30
2018-04-07T07:51:52.812Z,18.17
2018-04-07T07:54:21.075Z,21.83
2018-04-07T07:56:49.339Z,22.97
2018-04-07T07:59:17.656Z,22.40
2018-04-07T08:01:45.935Z,21.30
2018-04-07T08:04:14.243Z,25.63
2018-04-07T08:06:43.322Z,22.77
2018-04-07T08:09:11.596Z,21.67
2018-04-07T08:11:39.904Z,22.57
2018-04-07T08:14:08.930Z,23.30
2018-04-07T08:16:37.263Z,21.03
2018-04-07T08:19:06.308Z,25.10
2018-04-07T08:21:34.783Z,24.37
2018-04-07T08:24:03.076Z,22.27
2018-04-07T08:26:31.377Z,22.60
2018-04-07T08:28:59.936Z,23.57
2018-04-07T08:31:28.192Z,26.80
2018-04-07T08:33:56.502Z,24.03
2018-04-07T08:36:24.849Z,24.27
2018-04-07T08:38:53.848Z,26.60
2018-04-07T08:41:22.151Z,22.73
2018-04-07T08:43:50.733Z,22.97
2018-04-07T08:46:19.012Z,22.93
2018-04-07T08:48:47.316Z,23.63
2018-04-07T08:51:15.817Z,25.17
2018-04-07T08:53:44.092Z,22.83
2018-04-07T08:56:12.409Z,22.07
2018-04-07T08:58:40.852Z,24.90
2018-04-07T09:01:09.098Z,25.23
2018-04-07T09:03:37.349Z,22.43
2018-04-07T09:06:06.424Z,24.00
2018-04-07T09:08:34.712Z,23.67
2018-04-07T09:11:02.955Z,25.03
2018-04-07T09:13:31.305Z,23.47
2018-04-07T09:16:00.377Z,23.30
2018-04-07T09:18:28.658Z,23.30
2018-04-07T09:20:57.160Z,22.90
2018-04-07T09:23:26.171Z,22.13
2018-04-07T09:25:54.452Z,21.20
2018-04-07T09:28:22.731Z,20.87
2018-04-07T09:30:51.020Z,18.90
2018-04-07T09:33:19.304Z,21.80
2018-04-07T09:35:47.580Z,18.83
2018-04-07T09:38:15.867Z,17.30
2018-04-07T09:40:44.160Z,20.07
2018-04-07T10:01:14.927Z,16.83
2018-04-07T10:03:43.177Z,18.80
2018-04-07T10:06:11.430Z,17.57
2018-04-07T10:08:40.508Z,16.57
2018-04-07T10:11:08.816Z,19.53
2018-04-07T10:13:37.888Z,18.50
2018-04-07T10:16:06.174Z,17.77
2018-04-07T10:18:35.372Z,18.23
2018-04-07T10:21:03.649Z,18.87
2018-04-07T10:23:32.103Z,18.73
2018-04-07T10:26:00.425Z,17.97
2018-04-07T10:28:28.666Z,18.63
2018-04-07T10:30:56.942Z,19.13
2018-04-07T10:33:25.190Z,20.43
2018-04-07T10:35:53.512Z,18.47
2018-04-07T10:38:21.887Z,16.33
2018-04-07T10:40:50.184Z,18.30
2018-04-07T10:43:18.464Z,17.07
2018-04-07T10:45:46.805Z,19.57
2018-04-07T10:48:15.827Z,17.30
2018-04-07T11:08:47.831Z,15.07
2018-04-07T11:11:16.074Z,16.33
2018-04-07T11:13:44.361Z,15.40
2018-04-07T11:16:12.720Z,18.47
2018-04-07T11:18:41.887Z,16.33
2018-04-07T11:21:10.160Z,16.90
2018-04-07T11:23:38.652Z,17.10
2018-04-07T11:26:06.937Z,16.13
2018-04-07T11:28:35.182Z,15.57
2018-04-07T11:31:03.665Z,14.90
2018-04-07T11:33:31.943Z,16.07
2018-04-07T11:36:00.216Z,17.53
2018-04-07T11:38:28.474Z,14.70
2018-04-07T11:40:56.726Z,14.27
2018-04-07T11:43:25.056Z,16.77
2018-04-07T11:45:53.684Z,13.90
2018-04-07T11:48:22.078Z,15.47
2018-04-07T11:50:50.489Z,14.40
2018-04-07T11:53:19.658Z,16.33
2018-04-07T11:55:47.965Z,15.37
2018-04-07T11:58:16.245Z,19.53
2018-04-07T12:00:45.631Z,16.83
2018-04-07T12:03:13.874Z,17.33
2018-04-07T12:05:42.130Z,15.87
2018-04-07T12:08:10.639Z,19.13
2018-04-07T12:10:38.927Z,14.87
2018-04-07T12:13:07.223Z,14.53
2018-04-07T12:15:35.511Z,14.43
2018-04-07T12:18:03.763Z,14.50
2018-04-07T12:20:32.133Z,14.97
2018-04-07T12:23:00.665Z,14.67
2018-04-07T12:25:28.906Z,14.67
2018-04-07T12:27:57.210Z,15.40
2018-04-07T12:30:25.639Z,15.83
2018-04-07T12:32:53.931Z,14.03
2018-04-07T12:35:22.170Z,15.53
2018-04-07T12:37:50.677Z,15.87
2018-04-07T12:40:19.089Z,15.77
2018-04-07T12:42:48.051Z,15.93
2018-04-07T12:45:17.297Z,13.90
2018-04-07T12:47:45.577Z,17.83
2018-04-07T12:50:13.843Z,12.07
2018-04-07T12:52:42.274Z,14.63
2018-04-07T12:55:10.631Z,14.50
2018-04-07T12:57:38.919Z,14.33
2018-04-07T13:00:07.190Z,16.00
2018-04-07T13:02:35.536Z,15.20
2018-04-07T13:05:04.580Z,18.33
2018-04-07T13:07:32.925Z,16.07
2018-04-07T13:10:01.971Z,14.63
2018-04-07T13:12:30.260Z,13.40
2018-04-07T13:14:58.747Z,11.83
2018-04-07T13:17:27.056Z,12.53
2018-04-07T13:19:56.128Z,12.23
2018-04-07T13:22:24.575Z,11.40
2018-04-07T13:24:52.866Z,11.10
2018-04-07T13:27:21.182Z,9.13
2018-04-07T13:29:50.448Z,10.97
2018-04-07T13:32:18.760Z,11.60
2018-04-07T13:34:46.992Z,10.43
2018-04-07T13:37:15.546Z,10.87
2018-04-07T13:39:44.542Z,10.87
2018-04-07T13:42:13.651Z,12.63
2018-04-07T14:02:44.961Z,9.63
2018-04-07T14:05:13.266Z,10.40
2018-04-07T14:07:41.536Z,8.33
2018-04-07T14:10:10.031Z,6.43
2018-04-07T14:12:38.328Z,5.50
2018-04-07T14:15:06.590Z,5.47
2018-04-07T14:17:35.275Z,6.00
2018-04-07T14:20:03.586Z,6.73
2018-04-07T14:22:31.811Z,5.63
2018-04-07T14:25:00.232Z,4.10
2018-04-07T14:27:28.496Z,4.13
2018-04-07T14:29:56.726Z,3.90
2018-04-07T14:32:25.266Z,3.67
2018-04-07T14:34:53.540Z,3.40
2018-04-07T14:37:21.805Z,3.17
2018-04-07T14:39:50.117Z,3.20
2018-04-07T14:42:18.371Z,3.60
2018-04-07T14:44:46.611Z,4.57
2018-04-07T14:47:15.159Z,6.10
2018-04-07T14:49:43.464Z,5.83
2018-04-07T14:52:11.722Z,5.40
2018-04-07T14:54:40.170Z,6.33
2018-04-07T14:57:08.415Z,4.77
2018-04-07T14:59:37.488Z,5.20
2018-04-07T15:02:05.961Z,5.17
2018-04-07T15:04:34.241Z,5.77
2018-04-07T15:07:02.505Z,4.43
2018-04-07T15:09:30.941Z,4.27
2018-04-07T15:11:59.171Z,4.57
2018-04-07T15:14:27.468Z,3.67
2018-04-07T15:16:55.854Z,3.77
2018-04-07T15:19:24.162Z,4.37
2018-04-07T15:21:53.206Z,4.40
2018-04-07T15:24:21.462Z,4.30
2018-04-07T15:26:49.772Z,5.10
2018-04-07T15:29:18.069Z,4.30
2018-04-07T15:31:47.960Z,4.73
2018-04-07T15:34:16.231Z,5.47
2018-04-07T15:36:45.273Z,6.33
2018-04-07T15:39:13.780Z,5.43
2018-04-07T15:41:42.820Z,6.00
2018-04-07T15:44:11.127Z,7.00
2018-04-07T15:46:39.582Z,5.03
2018-04-07T15:49:07.822Z,6.83
2018-04-07T15:51:36.905Z,10.87
2018-04-07T15:54:05.584Z,10.67
2018-04-07T15:56:33.891Z,8.93
2018-04-07T15:59:02.095Z,7.97
2018-04-07T16:01:30.395Z,7.87
2018-04-07T16:03:58.635Z,7.13
2018-04-07T16:06:27.681Z,10.53
2018-04-07T16:08:56.296Z,11.47
2018-04-07T16:11:24.568Z,11.20
2018-04-07T16:13:52.922Z,9.97
2018-04-07T16:16:21.737Z,10.13
2018-04-07T16:18:50.003Z,11.40
2018-04-07T16:21:18.297Z,10.70
2018-04-07T16:23:46.705Z,11.13
2018-04-07T16:26:14.945Z,10.00
2018-04-07T16:28:43.199Z,10.03
2018-04-07T16:31:11.710Z,8.67
2018-04-07T16:33:39.965Z,8.40
2018-04-07T16:36:08.250Z,8.10
2018-04-07T16:38:36.579Z,9.60
2018-04-07T16:41:04.852Z,8.00
2018-04-07T16:43:33.111Z,6.93
2018-04-07T16:46:01.378Z,7.00
2018-04-07T16:48:29.659Z,7.20
2018-04-07T16:50:57.899Z,5.73
2018-04-07T16:53:27.000Z,5.67
2018-04-07T16:55:56.773Z,5.50
2018-04-07T16:58:25.045Z,5.40
2018-04-07T17:00:53.657Z,5.13
2018-04-07T17:03:21.898Z,4.90
2018-04-07T17:05:50.145Z,4.50
2018-04-07T17:08:19.211Z,5.73
2018-04-07T17:10:47.512Z,4.17
2018-04-07T17:13:16.580Z,4.93
2018-04-07T17:15:44.828Z,3.90
2018-04-07T17:18:13.104Z,4.40
2018-04-07T17:20:42.104Z,3.43
2018-04-07T17:23:10.420Z,4.13
2018-04-07T17:25:38.689Z,4.80
2018-04-07T17:28:06.992Z,3.97
2018-04-07T17:30:35.363Z,3.40
2018-04-07T17:33:03.606Z,4.47
2018-04-07T17:35:31.918Z,3.43
2018-04-07T17:38:00.360Z,3.00
2018-04-07T17:40:29.384Z,3.30
2018-04-07T17:42:57.655Z,3.07
2018-04-07T17:45:25.957Z,3.40
2018-04-07T17:47:54.229Z,3.10
2018-04-07T17:50:22.549Z,3.20
2018-04-07T17:52:51.024Z,3.43
2018-04-07T17:55:19.403Z,4.03
2018-04-07T17:57:47.671Z,3.53
2018-04-07T18:00:16.000Z,3.93
2018-04-07T18:02:45.003Z,3.57
2018-04-07T18:05:14.056Z,3.40
2018-04-07T18:07:42.509Z,3.50
2018-04-07T18:10:10.808Z,3.37
2018-04-07T18:12:39.031Z,3.53
2018-04-07T18:15:08.417Z,5.47
2018-04-07T18:17:36.679Z,8.57
2018-04-07T18:20:04.935Z,9.53
2018-04-07T18:22:33.502Z,8.80
2018-04-07T18:25:01.896Z,7.40
2018-04-07T18:27:30.577Z,5.77
2018-04-07T18:29:59.615Z,5.63
2018-04-07T18:32:27.888Z,4.57
2018-04-07T18:34:56.127Z,3.80
2018-04-07T18:37:25.251Z,3.93
2018-04-07T18:39:53.561Z,3.70
2018-04-07T18:42:21.802Z,4.37
2018-04-07T18:44:50.438Z,3.97
2018-04-07T19:05:21.047Z,5.93
2018-04-07T19:07:49.585Z,5.30
2018-04-07T19:10:17.852Z,4.90
2018-04-07T19:12:46.096Z,6.10
2018-04-07T19:15:14.456Z,4.50
2018-04-07T19:17:42.679Z,5.23
2018-04-07T19:20:10.921Z,5.63
2018-04-07T19:22:39.257Z,7.33
2018-04-07T19:25:07.521Z,7.37
2018-04-07T19:27:35.877Z,4.83
2018-04-07T19:30:04.185Z,4.30
2018-04-07T19:32:32.419Z,4.20
2018-04-07T19:35:01.496Z,4.90
2018-04-07T19:37:29.789Z,4.27
2018-04-07T19:39:58.050Z,3.90
2018-04-07T19:42:26.349Z,4.73
2018-04-07T19:44:54.844Z,5.00
2018-04-07T19:47:23.108Z,4.63
2018-04-07T19:49:51.334Z,4.73
2018-04-07T19:52:19.788Z,7.67
2018-04-07T19:54:48.051Z,5.03
2018-04-07T19:57:16.320Z,4.63
2018-04-07T19:59:44.845Z,6.50
2018-04-07T20:02:13.876Z,5.23
2018-04-07T20:04:42.152Z,5.47
2018-04-07T20:07:10.673Z,5.50
2018-04-07T20:09:38.942Z,5.37
2018-04-07T20:30:08.982Z,8.13
2018-04-07T20:32:37.292Z,7.30
2018-04-07T20:35:05.530Z,9.60
2018-04-07T20:37:34.006Z,9.63
2018-04-07T20:40:02.317Z,8.00
2018-04-07T20:42:30.597Z,7.80
2018-04-07T20:44:58.908Z,9.40
2018-04-07T20:47:27.210Z,7.13
2018-04-07T20:49:55.517Z,10.93
2018-04-07T20:52:23.924Z,8.70
2018-04-07T20:54:52.226Z,8.93
2018-04-07T20:57:20.485Z,7.57
2018-04-07T20:59:48.804Z,8.50
2018-04-07T21:02:17.872Z,8.27
2018-04-07T21:04:46.105Z,8.43
2018-04-07T21:07:14.698Z,9.17
2018-04-07T21:09:42.942Z,9.03
2018-04-07T21:12:11.237Z,8.33
2018-04-07T21:14:40.333Z,8.70
2018-04-07T21:17:09.336Z,8.17
2018-04-07T21:19:37.641Z,8.57
2018-04-07T21:22:05.987Z,8.17
2018-04-07T21:24:35.021Z,8.97
2018-04-07T21:27:03.298Z,9.23
2018-04-07T21:47:33.637Z,10.17
2018-04-07T21:50:01.904Z,8.93
2018-04-07T21:52:30.179Z,8.90
2018-04-07T21:54:59.244Z,9.27
2018-04-07T21:57:27.528Z,9.00
2018-04-07T21:59:55.749Z,11.10
2018-04-07T22:02:24.006Z,8.63
2018-04-07T22:04:53.022Z,9.27
2018-04-07T22:07:21.340Z,8.20
2018-04-07T22:09:49.839Z,10.20
2018-04-07T22:12:18.152Z,9.33
2018-04-07T22:14:46.412Z,8.53
2018-04-07T22:17:14.744Z,9.97
2018-04-07T22:19:43.016Z,9.13
2018-04-07T22:22:11.324Z,8.83
2018-04-07T22:24:39.711Z,9.13
2018-04-07T22:27:07.987Z,8.90
2018-04-07T22:29:36.752Z,8.13
2018-04-07T22:32:05.385Z,8.80
2018-04-07T22:34:33.623Z,8.53
2018-04-07T22:37:01.928Z,8.53
2018-04-07T22:39:30.265Z,8.97
2018-04-07T22:41:58.486Z,9.73
2018-04-07T22:44:26.796Z,9.43
2018-04-07T22:46:55.447Z,8.63
2018-04-07T22:49:23.760Z,9.50
2018-04-07T22:51:51.994Z,8.63
2018-04-07T22:54:20.522Z,8.60
2018-04-07T22:56:48.795Z,9.73
2018-04-07T22:59:17.048Z,11.23
2018-04-07T23:01:45.340Z,9.57
2018-04-07T23:04:13.636Z,9.10
2018-04-07T23:06:41.870Z,8.70
2018-04-07T23:09:10.305Z,8.80
2018-04-07T23:11:38.593Z,8.07
2018-04-07T23:14:06.859Z,8.73
2018-04-07T23:16:35.177Z,9.53
2018-04-07T23:19:03.439Z,12.33
2018-04-07T23:21:31.689Z,8.80
2018-04-07T23:23:59.976Z,7.80
2018-04-07T23:26:28.281Z,8.13
2018-04-07T23:28:56.543Z,8.57
2018-04-07T23:31:24.895Z,9.80
2018-04-07T23:33:53.204Z,8.53
2018-04-07T23:36:21.605Z,10.53
2018-04-07T23:38:49.935Z,10.17
2018-04-07T23:41:18.215Z,9.40
2018-04-07T23:43:46.483Z,12.47
2018-04-07T23:46:14.946Z,9.57
2018-04-07T23:48:43.959Z,12.07
2018-04-07T23:51:13.004Z,10.47
2018-04-07T23:53:41.303Z,9.23
2018-04-07T23:56:09.613Z,9.17
2018-04-07T23:58:37.864Z,8.80
